Terminal Aerodrome Forecast
Issued by NWS Wichita, KS

Home | Current Version | Previous Version | Text Only | Print | Product List | Glossary Off
Versions: 1 2 3 4 5 6 7 8 9 10 11 12 13 14 15 16

000
FTUS43 KICT 261332 AAB
TAFICT
TAF AMD
KICT 261332Z 2614/2712 36014KT P6SM BKN012 OVC025
     FM261700 02015KT P6SM BKN018 OVC025
     FM270100 33012KT P6SM VCSH BKN018 OVC040
     FM270700 32015G20KT P6SM SCT020 BKN035=

USA.gov is the U.S. government's official web portal to all federal, state and local government web resources and services.